createdAt,value
2022-08-30T00:01:05.053Z,1.55
2022-08-30T00:03:37.348Z,1.25
2022-08-30T00:06:06.582Z,1.30
2022-08-30T00:08:35.077Z,1.38
2022-08-30T00:11:04.878Z,1.27
2022-08-30T00:13:31.717Z,1.40
2022-08-30T00:15:58.789Z,1.48
2022-08-30T00:18:25.672Z,1.25
2022-08-30T00:20:52.850Z,1.15
2022-08-30T00:23:20.302Z,1.13
2022-08-30T00:25:47.289Z,1.73
2022-08-30T00:28:15.056Z,1.30
2022-08-30T00:30:42.930Z,1.42
2022-08-30T00:33:10.344Z,1.10
2022-08-30T00:35:39.915Z,1.00
2022-08-30T00:38:08.873Z,1.45
2022-08-30T00:40:36.667Z,1.20
2022-08-30T00:43:07.055Z,1.10
2022-08-30T00:45:36.432Z,1.58
2022-08-30T00:48:04.738Z,1.48
2022-08-30T00:50:35.929Z,1.20
2022-08-30T00:53:07.002Z,1.55
2022-08-30T00:55:34.242Z,1.63
2022-08-30T00:58:07.179Z,1.60
2022-08-30T01:00:34.491Z,1.40
2022-08-30T01:03:01.316Z,1.60
2022-08-30T01:05:28.581Z,1.85
2022-08-30T01:07:55.463Z,2.42
2022-08-30T01:10:23.121Z,1.60
2022-08-30T01:12:49.996Z,1.38
2022-08-30T01:15:17.057Z,1.50
2022-08-30T01:17:47.655Z,1.60
2022-08-30T01:20:22.571Z,1.73
2022-08-30T01:22:49.397Z,1.67
2022-08-30T01:25:21.016Z,1.73
2022-08-30T01:27:55.121Z,1.67
2022-08-30T01:30:24.063Z,1.35
2022-08-30T01:32:56.694Z,1.30
2022-08-30T01:35:23.544Z,1.48
2022-08-30T01:37:51.134Z,1.60
2022-08-30T01:40:19.808Z,1.90
2022-08-30T01:42:46.732Z,1.90
2022-08-30T01:45:13.921Z,2.10
2022-08-30T01:47:41.012Z,2.15
2022-08-30T01:50:08.483Z,2.20
2022-08-30T01:52:35.450Z,2.30
2022-08-30T01:55:03.345Z,3.40
2022-08-30T01:57:30.418Z,3.42
2022-08-30T01:59:57.324Z,4.47
2022-08-30T02:02:28.614Z,6.03
2022-08-30T02:04:56.869Z,5.50
2022-08-30T02:07:25.694Z,5.22
2022-08-30T02:09:54.632Z,5.90
2022-08-30T02:12:21.482Z,5.95
2022-08-30T02:14:48.288Z,5.60
2022-08-30T02:17:15.996Z,5.97
2022-08-30T02:19:43.461Z,5.95
2022-08-30T02:22:10.394Z,7.18
2022-08-30T02:24:37.557Z,5.80
2022-08-30T02:27:05.563Z,6.15
2022-08-30T02:29:32.892Z,6.30
2022-08-30T02:31:59.990Z,6.10
2022-08-30T02:34:27.195Z,5.85
2022-08-30T02:36:54.001Z,6.35
2022-08-30T02:39:21.031Z,5.95
2022-08-30T02:41:48.099Z,5.18
2022-08-30T02:44:15.451Z,5.75
2022-08-30T02:46:42.287Z,5.90
2022-08-30T02:49:32.064Z,4.95
2022-08-30T02:51:56.336Z,5.10
2022-08-30T02:54:23.190Z,5.20
2022-08-30T02:56:50.289Z,4.65
2022-08-30T02:59:18.568Z,5.22
2022-08-30T03:01:45.722Z,5.38
2022-08-30T03:04:13.059Z,4.70
2022-08-30T03:06:41.319Z,4.90
2022-08-30T03:09:08.182Z,4.72
2022-08-30T03:11:35.218Z,5.00
2022-08-30T03:14:02.123Z,4.78
2022-08-30T03:16:28.955Z,4.90
2022-08-30T03:18:56.363Z,4.50
2022-08-30T03:21:23.152Z,4.55
2022-08-30T03:23:50.029Z,4.43
2022-08-30T03:26:16.858Z,5.10
2022-08-30T03:28:43.780Z,4.50
2022-08-30T03:31:12.148Z,4.95
2022-08-30T03:33:43.271Z,4.60
2022-08-30T03:36:11.025Z,3.88
2022-08-30T03:38:38.546Z,3.63
2022-08-30T03:41:06.014Z,3.40
2022-08-30T03:43:34.474Z,3.22
2022-08-30T03:46:02.120Z,3.00
2022-08-30T03:48:30.046Z,3.50
2022-08-30T03:50:57.639Z,3.40
2022-08-30T03:53:27.210Z,3.00
2022-08-30T03:55:54.958Z,3.10
2022-08-30T03:58:22.972Z,2.97
2022-08-30T04:00:50.058Z,2.55
2022-08-30T04:03:18.539Z,2.90
2022-08-30T04:05:45.623Z,2.83
2022-08-30T04:08:12.485Z,2.88
2022-08-30T04:10:39.371Z,3.17
2022-08-30T04:13:06.218Z,3.10
2022-08-30T04:15:33.058Z,3.97
2022-08-30T04:17:59.981Z,3.75
2022-08-30T04:20:27.427Z,4.20
2022-08-30T04:22:54.589Z,4.32
2022-08-30T04:25:21.461Z,4.93
2022-08-30T04:27:48.508Z,5.38
2022-08-30T04:30:16.868Z,5.32
2022-08-30T04:32:44.782Z,6.22
2022-08-30T04:35:13.332Z,5.78
2022-08-30T04:37:40.306Z,6.28
2022-08-30T04:40:08.230Z,6.70
2022-08-30T04:42:36.103Z,6.45
2022-08-30T04:45:07.952Z,5.93
2022-08-30T04:47:34.944Z,6.88
2022-08-30T04:50:03.626Z,7.00
2022-08-30T04:52:30.627Z,7.80
2022-08-30T04:54:59.150Z,8.50
2022-08-30T04:57:27.918Z,7.65
2022-08-30T04:59:55.186Z,7.70
2022-08-30T05:02:22.670Z,7.28
2022-08-30T05:05:07.940Z,7.78
2022-08-30T05:07:35.288Z,6.47
2022-08-30T05:10:02.340Z,6.93
2022-08-30T05:12:29.141Z,7.00
2022-08-30T05:14:58.412Z,7.30
2022-08-30T05:17:25.875Z,7.10
2022-08-30T05:19:52.745Z,7.70
2022-08-30T05:22:20.236Z,7.72
2022-08-30T05:24:47.179Z,7.75
2022-08-30T05:27:14.057Z,7.15
2022-08-30T05:29:41.112Z,6.97
2022-08-30T05:32:09.211Z,6.90
2022-08-30T05:34:36.148Z,7.13
2022-08-30T05:37:03.406Z,7.30
2022-08-30T05:39:51.403Z,7.65
2022-08-30T05:42:17.488Z,6.82
2022-08-30T05:44:44.503Z,7.30
2022-08-30T05:47:11.429Z,6.45
2022-08-30T05:49:38.302Z,6.18
2022-08-30T05:52:05.554Z,6.68
2022-08-30T05:54:32.413Z,7.00
2022-08-30T05:56:59.972Z,6.85
2022-08-30T05:59:26.911Z,6.78
2022-08-30T06:01:57.687Z,6.18
2022-08-30T06:04:25.563Z,6.15
2022-08-30T06:06:53.010Z,6.80
2022-08-30T06:09:20.123Z,6.22
2022-08-30T06:11:47.955Z,6.57
2022-08-30T06:14:15.570Z,6.03
2022-08-30T06:16:45.906Z,6.22
2022-08-30T06:19:14.924Z,5.57
2022-08-30T06:21:43.004Z,5.85
2022-08-30T06:24:11.388Z,6.20
2022-08-30T06:26:41.876Z,5.70
2022-08-30T06:29:10.967Z,6.15
2022-08-30T06:31:37.874Z,5.40
2022-08-30T06:34:05.774Z,5.72
2022-08-30T06:36:33.430Z,6.00
2022-08-30T06:39:01.167Z,4.95
2022-08-30T06:41:33.457Z,5.45
2022-08-30T06:44:02.226Z,9.27
2022-08-30T06:46:32.622Z,5.85
2022-08-30T06:48:59.949Z,5.68
2022-08-30T06:51:30.258Z,6.00
2022-08-30T06:53:58.510Z,5.80
2022-08-30T06:56:27.411Z,5.63
2022-08-30T06:58:55.027Z,5.45
2022-08-30T07:01:26.299Z,4.90
2022-08-30T07:03:55.528Z,5.47
2022-08-30T07:06:24.525Z,5.50
2022-08-30T07:08:56.227Z,5.00
2022-08-30T07:11:42.075Z,4.90
2022-08-30T07:14:09.094Z,5.75
2022-08-30T07:16:36.076Z,5.38
2022-08-30T07:19:04.256Z,5.40
2022-08-30T07:21:37.557Z,5.45
2022-08-30T07:24:05.491Z,5.22
2022-08-30T07:26:54.599Z,4.80
2022-08-30T07:29:21.628Z,4.40
2022-08-30T07:31:48.489Z,4.50
2022-08-30T07:34:15.394Z,4.65
2022-08-30T07:36:42.320Z,4.82
2022-08-30T07:39:09.932Z,4.22
2022-08-30T07:41:38.867Z,4.50
2022-08-30T07:44:07.970Z,4.45
2022-08-30T07:46:35.699Z,4.75
2022-08-30T07:49:04.180Z,4.60
2022-08-30T07:51:32.461Z,3.90
2022-08-30T07:54:00.489Z,3.40
2022-08-30T07:56:27.825Z,3.50
2022-08-30T07:58:54.716Z,3.40
2022-08-30T08:01:22.973Z,3.83
2022-08-30T08:03:50.549Z,3.33
2022-08-30T08:06:19.721Z,3.03
2022-08-30T08:08:46.917Z,3.30
2022-08-30T08:11:16.353Z,3.20
2022-08-30T08:13:53.170Z,3.30
2022-08-30T08:16:24.283Z,3.75
2022-08-30T08:18:51.954Z,3.50
2022-08-30T08:21:18.990Z,3.55
2022-08-30T08:23:45.879Z,2.85
2022-08-30T08:26:12.822Z,2.97
2022-08-30T08:28:41.102Z,3.00
2022-08-30T08:31:15.327Z,2.92
2022-08-30T08:33:42.239Z,3.00
2022-08-30T08:36:09.634Z,2.88
2022-08-30T08:38:37.061Z,3.13
2022-08-30T08:41:32.342Z,2.40
2022-08-30T08:43:59.802Z,2.20
2022-08-30T08:46:40.571Z,2.00
2022-08-30T08:49:12.644Z,1.63
2022-08-30T08:51:59.680Z,1.73
2022-08-30T08:54:56.418Z,1.15
2022-08-30T08:57:36.048Z,1.42
2022-08-30T09:00:14.294Z,1.13
2022-08-30T09:02:57.074Z,1.10
2022-08-30T09:05:27.587Z,1.10
2022-08-30T09:08:09.704Z,1.02
2022-08-30T09:10:50.058Z,1.02
2022-08-30T09:13:19.033Z,1.35
2022-08-30T09:15:51.012Z,1.02
2022-08-30T09:18:42.212Z,1.00
2022-08-30T09:21:14.801Z,1.20
2022-08-30T09:23:57.213Z,1.15
2022-08-30T09:29:02.811Z,1.20
2022-08-30T09:32:10.102Z,1.13
2022-08-30T09:34:37.843Z,1.27
2022-08-30T09:37:21.937Z,1.00
2022-08-30T09:39:49.260Z,1.10
2022-08-30T09:42:26.459Z,1.30
2022-08-30T09:45:12.439Z,1.38
2022-08-30T09:47:42.319Z,1.27
2022-08-30T09:50:18.670Z,1.30
2022-08-30T09:52:56.640Z,1.15
2022-08-30T09:55:57.208Z,1.08
2022-08-30T09:58:35.886Z,1.13
2022-08-30T10:01:02.891Z,0.82
2022-08-30T10:04:02.253Z,1.20
2022-08-30T10:06:42.114Z,0.88
2022-08-30T10:09:33.907Z,1.20
2022-08-30T10:12:06.694Z,0.82
2022-08-30T10:14:39.642Z,0.90
2022-08-30T10:17:14.638Z,0.90
2022-08-30T10:20:12.353Z,0.80
2022-08-30T10:23:15.085Z,0.93
2022-08-30T10:26:30.080Z,0.80
2022-08-30T10:29:23.404Z,0.75
2022-08-30T10:32:01.185Z,0.70
2022-08-30T10:34:54.313Z,0.88
2022-08-30T10:37:25.296Z,0.80
2022-08-30T10:39:59.245Z,1.10
2022-08-30T10:42:30.634Z,0.80
2022-08-30T10:45:13.066Z,0.80
2022-08-30T10:48:05.334Z,1.05
2022-08-30T10:50:44.124Z,0.75
2022-08-30T10:53:15.944Z,1.00
2022-08-30T10:56:00.405Z,0.40
2022-08-30T10:58:28.112Z,1.00
2022-08-30T11:01:20.352Z,0.60
2022-08-30T11:03:54.371Z,0.60
2022-08-30T11:06:39.439Z,1.40
2022-08-30T11:09:18.109Z,0.98
2022-08-30T11:11:54.527Z,2.50
2022-08-30T11:14:25.561Z,2.95
2022-08-30T11:16:56.423Z,1.48
2022-08-30T11:19:41.146Z,0.90
2022-08-30T11:22:38.290Z,0.60
2022-08-30T11:25:10.111Z,0.85
2022-08-30T11:30:38.238Z,0.68
2022-08-30T11:33:12.976Z,0.73
2022-08-30T11:35:50.176Z,0.60
2022-08-30T11:38:37.456Z,0.70
2022-08-30T11:41:14.400Z,0.65
2022-08-30T11:43:44.352Z,0.80
2022-08-30T11:46:36.248Z,0.57
2022-08-30T11:49:15.553Z,0.90
2022-08-30T11:52:27.480Z,0.57
2022-08-30T11:55:36.890Z,0.70
2022-08-30T11:58:43.951Z,0.50
2022-08-30T12:01:49.862Z,0.70
2022-08-30T12:04:19.853Z,0.77
2022-08-30T12:06:59.195Z,0.63
2022-08-30T12:09:26.546Z,1.00
2022-08-30T12:11:53.444Z,0.60
2022-08-30T12:14:44.860Z,0.60
2022-08-30T12:18:03.537Z,0.60
2022-08-30T12:20:45.538Z,0.47
2022-08-30T12:23:31.578Z,0.60
2022-08-30T12:26:29.914Z,0.57
2022-08-30T12:29:18.781Z,0.50
2022-08-30T12:31:58.253Z,0.50
2022-08-30T12:34:27.397Z,0.32
2022-08-30T12:37:04.551Z,2.05
2022-08-30T12:39:44.083Z,0.70
2022-08-30T12:42:21.204Z,0.50
2022-08-30T12:44:53.660Z,0.45
2022-08-30T12:47:29.280Z,0.60
2022-08-30T12:49:57.718Z,0.70
2022-08-30T12:52:29.469Z,0.73
2022-08-30T12:55:19.313Z,0.43
2022-08-30T12:58:01.029Z,0.47
2022-08-30T13:00:31.594Z,0.43
2022-08-30T13:03:02.279Z,0.50
2022-08-30T13:05:45.520Z,0.60
2022-08-30T13:08:16.679Z,0.40
2022-08-30T13:11:08.974Z,0.63
2022-08-30T13:13:38.925Z,0.47
2022-08-30T13:16:34.760Z,0.52
2022-08-30T13:19:41.278Z,0.50
2022-08-30T13:22:24.451Z,0.40
2022-08-30T13:24:54.331Z,0.50
2022-08-30T13:27:21.636Z,0.50
2022-08-30T13:29:48.824Z,0.68
2022-08-30T13:32:16.219Z,0.47
2022-08-30T13:34:43.658Z,0.63
2022-08-30T13:40:04.927Z,0.40
2022-08-30T13:42:32.299Z,0.40
2022-08-30T13:44:59.595Z,0.52
2022-08-30T13:47:34.485Z,0.60
2022-08-30T13:50:02.291Z,0.50
2022-08-30T13:52:29.322Z,0.30
2022-08-30T13:54:57.857Z,0.60
2022-08-30T14:00:19.424Z,0.38
2022-08-30T14:02:54.701Z,0.50
2022-08-30T14:05:48.739Z,1.30
2022-08-30T14:11:12.729Z,0.50
2022-08-30T14:14:14.746Z,0.52
2022-08-30T14:16:28.200Z,0.28
2022-08-30T14:18:56.128Z,0.40
2022-08-30T14:21:24.728Z,0.50
2022-08-30T14:23:53.535Z,0.40
2022-08-30T14:26:24.149Z,0.40
2022-08-30T14:28:52.143Z,1.98
2022-08-30T14:31:19.976Z,0.50
2022-08-30T14:33:47.601Z,0.40
2022-08-30T14:36:15.380Z,0.40
2022-08-30T14:38:43.352Z,0.60
2022-08-30T14:41:11.076Z,0.57
2022-08-30T14:43:40.428Z,0.50
2022-08-30T14:46:08.991Z,0.45
2022-08-30T14:48:38.195Z,0.50
2022-08-30T14:51:16.833Z,0.50
2022-08-30T14:53:44.905Z,0.57
2022-08-30T14:56:16.034Z,0.40
2022-08-30T14:58:43.526Z,0.40
2022-08-30T15:01:12.476Z,0.50
2022-08-30T15:03:41.293Z,0.57
2022-08-30T15:06:09.338Z,0.50
2022-08-30T15:08:38.024Z,0.40
2022-08-30T15:11:13.093Z,0.50
2022-08-30T15:13:41.106Z,0.40
2022-08-30T15:16:23.979Z,0.47
2022-08-30T15:18:51.591Z,0.40
2022-08-30T15:21:37.701Z,0.47
2022-08-30T15:24:06.571Z,0.50
2022-08-30T15:26:33.763Z,0.40
2022-08-30T15:29:00.772Z,0.38
2022-08-30T15:31:28.831Z,0.32
2022-08-30T15:33:56.630Z,0.40
2022-08-30T15:36:24.426Z,0.40
2022-08-30T15:38:55.313Z,0.40
2022-08-30T15:41:23.592Z,0.60
2022-08-30T15:43:52.791Z,0.50
2022-08-30T15:46:41.731Z,0.55
2022-08-30T15:49:16.028Z,0.30
2022-08-30T15:51:45.834Z,0.40
2022-08-30T15:54:15.189Z,0.40
2022-08-30T15:56:43.634Z,0.57
2022-08-30T15:59:15.153Z,0.52
2022-08-30T16:01:43.938Z,0.65
2022-08-30T16:04:11.368Z,0.90
2022-08-30T16:06:38.879Z,0.65
2022-08-30T16:09:07.160Z,0.40
2022-08-30T16:11:35.118Z,0.60
2022-08-30T16:14:02.629Z,0.40
2022-08-30T16:16:31.147Z,0.30
2022-08-30T16:18:58.568Z,0.50
2022-08-30T16:21:30.600Z,0.45
2022-08-30T16:24:00.171Z,0.38
2022-08-30T16:26:28.353Z,0.50
2022-08-30T16:28:55.938Z,0.50
2022-08-30T16:31:23.811Z,0.40
2022-08-30T16:33:52.535Z,0.40
2022-08-30T16:36:21.237Z,0.32
2022-08-30T16:38:48.526Z,0.85
2022-08-30T16:41:21.051Z,0.60
2022-08-30T16:43:49.823Z,0.50
2022-08-30T16:46:22.915Z,0.70
2022-08-30T16:48:50.479Z,0.60
2022-08-30T16:51:20.930Z,0.50
2022-08-30T16:53:48.767Z,0.40
2022-08-30T16:56:20.861Z,0.65
2022-08-30T16:58:48.619Z,0.60
2022-08-30T17:01:19.159Z,0.50
2022-08-30T17:03:49.912Z,0.82
2022-08-30T17:06:20.588Z,0.63
2022-08-30T17:08:47.579Z,0.47
2022-08-30T17:11:15.277Z,0.52
2022-08-30T17:13:42.947Z,0.50
2022-08-30T17:16:11.644Z,0.60
2022-08-30T17:18:38.879Z,0.70
2022-08-30T17:21:09.241Z,0.80
2022-08-30T17:23:36.635Z,0.60
2022-08-30T17:26:04.780Z,0.68
2022-08-30T17:28:32.810Z,0.60
2022-08-30T17:31:01.829Z,0.70
2022-08-30T17:33:29.464Z,0.70
2022-08-30T17:35:56.385Z,0.70
2022-08-30T17:38:23.686Z,0.70
2022-08-30T17:40:50.653Z,0.60
2022-08-30T17:43:19.268Z,0.80
2022-08-30T17:45:46.134Z,0.80
2022-08-30T17:48:13.018Z,0.70
2022-08-30T17:50:39.955Z,0.60
2022-08-30T17:53:07.616Z,0.50
2022-08-30T17:55:34.422Z,1.05
2022-08-30T17:58:01.926Z,0.70
2022-08-30T18:00:28.807Z,0.80
2022-08-30T18:02:56.090Z,1.00
2022-08-30T18:05:24.401Z,1.10
2022-08-30T18:07:52.108Z,0.65
2022-08-30T18:10:19.087Z,0.75
2022-08-30T18:12:54.268Z,1.25
2022-08-30T18:15:21.458Z,0.70
2022-08-30T18:17:49.175Z,0.80
2022-08-30T18:20:17.439Z,0.77
2022-08-30T18:22:44.485Z,0.73
2022-08-30T18:25:11.534Z,1.00
2022-08-30T18:27:39.187Z,0.82
2022-08-30T18:30:11.586Z,0.70
2022-08-30T18:32:38.766Z,1.00
2022-08-30T18:35:06.474Z,0.90
2022-08-30T18:37:33.583Z,0.85
2022-08-30T18:40:01.053Z,0.70
2022-08-30T18:42:28.213Z,0.85
2022-08-30T18:44:55.023Z,0.70
2022-08-30T18:47:23.399Z,0.70
2022-08-30T18:49:52.505Z,0.70
2022-08-30T18:52:19.728Z,0.88
2022-08-30T18:54:52.769Z,0.80
2022-08-30T18:57:20.933Z,0.88
2022-08-30T18:59:49.082Z,1.10
2022-08-30T19:02:17.484Z,0.82
2022-08-30T19:04:45.489Z,0.75
2022-08-30T19:07:14.767Z,0.80
2022-08-30T19:09:41.934Z,0.90
2022-08-30T19:12:11.661Z,0.80
2022-08-30T19:14:39.394Z,0.70
2022-08-30T19:17:07.625Z,0.80
2022-08-30T19:19:35.913Z,0.70
2022-08-30T19:22:12.076Z,1.00
2022-08-30T19:24:38.937Z,0.80
2022-08-30T19:27:06.309Z,0.80
2022-08-30T19:29:33.188Z,0.70
2022-08-30T19:32:00.083Z,0.68
2022-08-30T19:34:27.026Z,0.90
2022-08-30T19:36:54.911Z,0.70
2022-08-30T19:39:21.784Z,0.80
2022-08-30T19:41:49.191Z,0.77
2022-08-30T19:44:16.274Z,0.73
2022-08-30T19:46:44.861Z,0.90
2022-08-30T19:49:12.141Z,0.73
2022-08-30T19:51:40.092Z,1.00
2022-08-30T19:54:15.194Z,1.05
2022-08-30T19:56:44.199Z,0.85
2022-08-30T19:59:11.173Z,0.63
2022-08-30T20:01:38.890Z,0.75
2022-08-30T20:04:05.845Z,0.75
2022-08-30T20:06:33.436Z,0.70
2022-08-30T20:09:00.890Z,0.82
2022-08-30T20:11:29.503Z,0.80
2022-08-30T20:13:57.074Z,0.68
2022-08-30T20:16:30.017Z,0.80
2022-08-30T20:19:06.711Z,0.63
2022-08-30T20:21:34.003Z,0.80
2022-08-30T20:24:18.308Z,0.75
2022-08-30T20:26:45.532Z,0.70
2022-08-30T20:29:12.691Z,0.60
2022-08-30T20:31:39.573Z,0.70
2022-08-30T20:34:06.572Z,1.08
2022-08-30T20:36:33.861Z,0.73
2022-08-30T20:39:02.007Z,0.75
2022-08-30T20:41:30.757Z,0.65
2022-08-30T20:43:58.384Z,0.70
2022-08-30T20:46:25.582Z,0.80
2022-08-30T20:48:52.854Z,0.85
2022-08-30T20:51:21.071Z,0.60
2022-08-30T20:53:49.281Z,0.90
2022-08-30T20:56:27.739Z,0.60
2022-08-30T20:58:54.934Z,0.60
2022-08-30T21:01:23.498Z,0.77
2022-08-30T21:03:51.188Z,0.70
2022-08-30T21:06:18.560Z,0.63
2022-08-30T21:08:49.578Z,1.00
2022-08-30T21:11:16.565Z,0.70
2022-08-30T21:13:43.731Z,0.65
2022-08-30T21:16:12.406Z,0.52
2022-08-30T21:18:39.766Z,0.50
2022-08-30T21:21:11.197Z,0.50
2022-08-30T21:23:38.175Z,0.47
2022-08-30T21:26:07.481Z,0.68
2022-08-30T21:28:34.901Z,0.60
2022-08-30T21:31:16.372Z,0.50
2022-08-30T21:33:43.387Z,0.77
2022-08-30T21:36:29.287Z,0.40
2022-08-30T21:39:00.814Z,0.50
2022-08-30T21:41:31.485Z,0.50
2022-08-30T21:44:00.729Z,0.60
2022-08-30T21:46:29.056Z,0.45
2022-08-30T21:48:59.297Z,0.47
2022-08-30T21:51:26.223Z,0.40
2022-08-30T21:53:53.428Z,0.50
2022-08-30T21:56:22.256Z,0.47
2022-08-30T21:58:49.778Z,0.50
2022-08-30T22:01:25.348Z,0.50
2022-08-30T22:03:55.057Z,0.50
2022-08-30T22:06:22.270Z,0.50
2022-08-30T22:08:52.224Z,0.52
2022-08-30T22:11:24.681Z,0.60
2022-08-30T22:13:53.758Z,0.45
2022-08-30T22:16:22.052Z,0.60
2022-08-30T22:18:49.752Z,0.60
2022-08-30T22:21:19.278Z,0.60
2022-08-30T22:23:46.370Z,0.43
2022-08-30T22:26:14.855Z,0.50
2022-08-30T22:28:42.237Z,0.60
2022-08-30T22:31:11.403Z,0.40
2022-08-30T22:33:38.877Z,0.40
2022-08-30T22:36:10.943Z,0.40
2022-08-30T22:38:38.167Z,0.60
2022-08-30T22:41:13.184Z,0.70
2022-08-30T22:43:51.142Z,0.40
2022-08-30T22:46:33.781Z,0.50
2022-08-30T22:49:07.384Z,0.68
2022-08-30T22:51:43.560Z,0.60
2022-08-30T22:54:14.395Z,0.47
2022-08-30T22:56:45.411Z,0.50
2022-08-30T22:59:32.230Z,0.70
2022-08-30T23:02:14.577Z,0.70
2022-08-30T23:05:12.009Z,0.70
2022-08-30T23:08:05.816Z,0.60
2022-08-30T23:10:55.955Z,0.40
2022-08-30T23:16:50.951Z,0.40
2022-08-30T23:19:25.016Z,0.40
2022-08-30T23:21:57.345Z,0.40
2022-08-30T23:24:49.143Z,0.60
2022-08-30T23:27:42.175Z,0.90
2022-08-30T23:30:30.393Z,0.60
2022-08-30T23:33:21.408Z,0.55
2022-08-30T23:36:10.288Z,0.43
2022-08-30T23:39:02.097Z,0.50
2022-08-30T23:41:50.564Z,0.40
2022-08-30T23:44:41.580Z,0.35
2022-08-30T23:47:30.417Z,0.47
2022-08-30T23:50:24.624Z,0.50
2022-08-30T23:53:20.004Z,0.40
2022-08-30T23:56:07.661Z,0.40
2022-08-30T23:58:55.884Z,0.60
